Time;durP1;ratioP1;P1;durP2;ratioP2;P2;SDS_P1;SDS_P2;PMS_P1;PMS_P2;Temp;Humidity;BMP_temperature;BMP_pressure;BME280_temperature;BME280_humidity;BME280_pressure;Samples;Min_cycle;Max_cycle;Signal;HPM_P1;HPM_P2
2023/03/18 00:00:50;;;;;;;;;13.50;13.50;;;;;14.24;74.20;100512.69;5075300;28;46261;-73
2023/03/18 00:03:16;;;;;;;;;17.25;17.00;;;;;14.23;73.83;100529.84;5075440;28;45505;-75
2023/03/18 00:05:41;;;;;;;;;17.00;16.00;;;;;14.20;73.82;100532.75;5060074;28;45332;-74
2023/03/18 00:08:08;;;;;;;;;16.00;16.00;;;;;14.08;73.38;100501.16;5055827;28;45615;-73
2023/03/18 00:10:34;;;;;;;;;14.50;14.25;;;;;14.22;73.17;100532.63;5055617;28;45517;-74
2023/03/18 00:13:00;;;;;;;;;17.00;17.00;;;;;14.16;73.23;100533.91;5055143;28;45634;-73
2023/03/18 00:15:27;;;;;;;;;18.00;16.50;;;;;14.16;73.52;100531.19;5055744;28;45570;-72
2023/03/18 00:17:53;;;;;;;;;22.75;19.25;;;;;14.10;73.58;100531.59;5055197;28;45435;-74
2023/03/18 00:20:27;;;;;;;;;19.25;17.50;;;;;14.01;73.52;100524.97;5057812;28;46053;-73
2023/03/18 00:22:54;;;;;;;;;17.25;15.75;;;;;14.11;73.61;100538.72;5063592;28;45341;-75
2023/03/18 00:25:19;;;;;;;;;16.25;14.50;;;;;14.02;73.45;100525.84;5055869;28;45308;-74
2023/03/18 00:27:45;;;;;;;;;16.25;16.25;;;;;14.02;73.27;100529.41;5055738;28;45328;-74
2023/03/18 05:31:26;;;;;;;;;10.25;9.00;;;;;13.08;72.93;100519.06;5056431;27;45565;-74
2023/03/18 05:33:52;;;;;;;;;5.25;5.25;;;;;13.14;72.95;100536.69;5054556;28;45269;-74
2023/03/18 05:36:18;;;;;;;;;4.75;3.50;;;;;13.12;72.94;100530.50;5054519;28;46160;-74
2023/03/18 05:38:43;;;;;;;;;7.50;7.50;;;;;13.08;73.00;100526.25;5054981;28;45345;-74
2023/03/18 05:41:08;;;;;;;;;9.75;7.50;;;;;13.07;73.49;100540.69;5054905;28;47796;-73
2023/03/18 05:43:33;;;;;;;;;6.25;6.25;;;;;12.92;73.65;100517.38;5054882;28;48960;-73
2023/03/18 05:45:59;;;;;;;;;6.50;6.00;;;;;13.01;73.27;100528.47;5054783;28;45459;-74
2023/03/18 05:48:25;;;;;;;;;7.50;6.25;;;;;13.02;73.10;100526.59;5036456;28;45359;-74
2023/03/18 05:50:51;;;;;;;;;6.50;6.25;;;;;12.99;73.72;100532.19;5055174;28;45355;-74
2023/03/18 05:53:16;;;;;;;;;8.50;6.75;;;;;12.81;73.76;100501.84;5055937;28;45438;-74
2023/03/18 05:55:42;;;;;;;;;5.00;5.00;;;;;12.94;73.75;100523.50;5056643;28;45472;-74
2023/03/18 05:58:08;;;;;;;;;9.00;9.00;;;;;12.95;73.81;100528.81;5060393;28;45214;-73
2023/03/18 06:00:36;;;;;;;;;9.50;9.50;;;;;12.88;73.16;100527.44;5054233;28;45205;-74
2023/03/18 06:03:02;;;;;;;;;8.25;8.25;;;;;12.88;74.10;100535.50;5072398;28;45429;-74
2023/03/18 06:05:28;;;;;;;;;9.00;9.00;;;;;12.72;74.25;100529.28;5041748;28;46268;-73
2023/03/18 06:07:54;;;;;;;;;9.50;9.50;;;;;12.71;74.15;100538.31;5054123;28;45352;-75
2023/03/18 06:10:21;;;;;;;;;9.00;9.00;;;;;12.74;74.32;100543.53;5054127;28;45312;-74
2023/03/18 06:12:48;;;;;;;;;10.50;10.50;;;;;12.74;74.83;100541.72;5054213;28;45395;-73
2023/03/18 06:15:14;;;;;;;;;9.75;9.75;;;;;12.72;74.64;100530.16;5053983;28;45501;-76
2023/03/18 06:17:40;;;;;;;;;10.50;9.50;;;;;12.73;74.85;100541.78;5053814;28;45747;-75
2023/03/18 06:20:08;;;;;;;;;10.00;9.50;;;;;12.74;73.65;100541.72;5054080;28;45229;-73
2023/03/18 06:22:34;;;;;;;;;9.00;6.25;;;;;12.61;74.61;100534.41;5054120;28;45450;-74
2023/03/18 06:25:00;;;;;;;;;8.25;7.25;;;;;12.58;74.83;100523.84;5054052;28;45462;-74
2023/03/18 06:27:25;;;;;;;;;11.25;6.00;;;;;12.59;74.62;100536.34;5035618;28;45395;-74
2023/03/18 06:29:51;;;;;;;;;6.25;6.25;;;;;12.39;74.78;100518.66;5054081;28;45383;-74
2023/03/18 06:32:16;;;;;;;;;6.50;6.50;;;;;12.42;74.48;100535.47;5053468;28;45225;-74
2023/03/18 06:34:44;;;;;;;;;6.25;6.25;;;;;12.44;74.72;100538.06;5053699;28;45462;-73
2023/03/18 06:37:09;;;;;;;;;8.50;7.00;;;;;12.48;75.10;100539.66;5054036;28;45373;-74
2023/03/18 06:39:35;;;;;;;;;8.50;7.25;;;;;12.49;74.72;100542.25;5053952;28;45684;-73
2023/03/18 06:42:01;;;;;;;;;7.00;7.00;;;;;12.58;74.87;100556.13;5053996;28;45425;-74
2023/03/18 06:44:26;;;;;;;;;0.00;0.00;;;;;12.47;74.88;100551.34;5053548;28;45505;-73
2023/03/18 06:46:52;;;;;;;;;5.75;5.75;;;;;12.57;74.52;100563.31;5053653;28;45427;-73
2023/03/18 06:49:18;;;;;;;;;5.00;5.00;;;;;12.58;74.34;100553.44;5053721;28;45324;-75
2023/03/18 06:51:44;;;;;;;;;4.00;4.00;;;;;12.61;74.18;100553.25;5053774;28;45484;-75
2023/03/18 06:54:09;;;;;;;;;6.00;6.00;;;;;12.70;73.95;100556.28;5053615;28;46217;-73
2023/03/18 06:56:40;;;;;;;;;6.50;6.50;;;;;12.73;73.38;100563.31;5054583;28;45331;-73
2023/03/18 06:59:07;;;;;;;;;9.25;5.00;;;;;12.73;73.73;100558.78;5058395;28;45280;-75
2023/03/18 07:01:33;;;;;;;;;5.75;5.75;;;;;12.72;73.45;100554.38;5053557;28;45777;-74
2023/03/18 07:03:59;;;;;;;;;4.50;4.50;;;;;12.65;74.07;100550.31;5066805;28;45683;-73
2023/03/18 07:06:26;;;;;;;;;4.00;4.00;;;;;12.70;73.31;100568.84;5035639;28;45411;-74
2023/03/18 07:08:52;;;;;;;;;4.00;4.00;;;;;12.58;73.86;100570.44;5054084;28;45355;-74
2023/03/18 07:11:18;;;;;;;;;3.00;3.00;;;;;12.50;74.00;100568.16;5056887;28;45440;-72
2023/03/18 07:13:43;;;;;;;;;5.00;3.75;;;;;12.55;74.07;100577.81;5056744;28;46338;-75
2023/03/18 07:16:09;;;;;;;;;2.50;2.50;;;;;12.51;74.01;100575.28;5039042;28;45262;-74
2023/03/18 07:18:35;;;;;;;;;3.00;2.00;;;;;12.42;74.07;100554.28;5055967;28;45534;-75
2023/03/18 07:21:01;;;;;;;;;3.00;3.00;;;;;12.40;73.76;100548.16;5056524;28;45456;-73
2023/03/18 07:23:26;;;;;;;;;1.25;1.25;;;;;12.46;73.88;100565.75;5056186;28;47361;-73
2023/03/18 07:25:51;;;;;;;;;2.75;2.75;;;;;12.40;74.11;100572.34;5056599;28;45413;-74
2023/03/18 07:28:17;;;;;;;;;1.25;1.25;;;;;12.40;73.87;100566.97;5055995;28;45530;-74
2023/03/18 07:30:42;;;;;;;;;3.00;3.00;;;;;12.50;73.93;100568.16;5056461;28;45562;-75
2023/03/18 07:33:07;;;;;;;;;1.50;1.50;;;;;12.59;73.21;100579.38;5054979;28;45391;-73
2023/03/18 07:35:33;;;;;;;;;2.00;2.00;;;;;12.53;73.52;100561.75;5056393;28;45307;-72
2023/03/18 07:38:00;;;;;;;;;3.25;3.25;;;;;12.55;73.31;100575.09;5056354;28;45311;-72
2023/03/18 07:40:25;;;;;;;;;2.25;2.25;;;;;12.45;73.50;100582.81;5056377;28;45549;-74
2023/03/18 07:42:51;;;;;;;;;4.00;3.00;;;;;12.47;73.49;100575.53;5055807;28;45346;-72
2023/03/18 07:45:16;;;;;;;;;3.00;3.00;;;;;12.43;73.83;100580.22;5056399;28;45239;-74
2023/03/18 07:47:42;;;;;;;;;3.00;3.00;;;;;12.27;74.18;100555.16;5056260;28;45262;-75
2023/03/18 07:50:08;;;;;;;;;2.00;2.00;;;;;12.30;74.04;100579.19;5056536;28;45444;-74
2023/03/18 07:52:34;;;;;;;;;2.50;2.50;;;;;12.37;73.62;100591.31;5056218;28;46330;-75
2023/03/18 07:55:00;;;;;;;;;2.00;2.00;;;;;12.43;73.34;100574.84;5038274;28;45369;-76
2023/03/18 07:57:26;;;;;;;;;4.00;4.00;;;;;12.52;73.58;100574.31;5044794;28;45690;-70
2023/03/18 07:59:51;;;;;;;;;2.75;2.75;;;;;12.58;73.38;100565.06;5056465;28;45416;-73
2023/03/18 08:02:16;;;;;;;;;1.50;1.00;;;;;12.72;72.92;100573.19;5038721;28;47568;-71
2023/03/18 08:04:42;;;;;;;;;2.00;2.00;;;;;12.77;73.30;100573.78;5068099;28;45373;-73
2023/03/18 08:07:08;;;;;;;;;4.00;2.00;;;;;12.80;73.52;100576.31;5037695;28;45403;-76
2023/03/18 08:09:35;;;;;;;;;2.75;2.75;;;;;12.82;73.29;100573.53;5064127;28;45519;-72
2023/03/18 08:12:00;;;;;;;;;2.00;2.00;;;;;12.88;72.96;100573.19;5056790;28;46025;-75
2023/03/18 08:14:26;;;;;;;;;2.00;2.00;;;;;13.01;72.94;100579.59;5056150;28;45291;-73
2023/03/18 08:16:52;;;;;;;;;2.00;2.00;;;;;13.10;72.77;100591.66;5054742;28;45597;-74
2023/03/18 08:19:18;;;;;;;;;2.00;2.00;;;;;13.07;73.04;100587.28;5056063;28;45178;-74
2023/03/18 08:21:43;;;;;;;;;4.50;2.00;;;;;13.14;72.96;100595.91;5069680;28;52762;-73
2023/03/18 08:24:09;;;;;;;;;3.75;3.00;;;;;13.11;72.75;100594.22;5076535;28;51051;-71
2023/03/18 08:26:35;;;;;;;;;2.00;2.00;;;;;13.16;72.65;100589.47;5075096;28;45331;-75
2023/03/18 08:29:00;;;;;;;;;3.75;3.75;;;;;13.27;72.72;100603.16;5073829;28;45391;-71
2023/03/18 08:31:26;;;;;;;;;5.00;3.00;;;;;13.33;71.42;100596.56;5054829;28;45950;-75
2023/03/18 08:33:54;;;;;;;;;2.75;2.00;;;;;13.29;71.79;100594.13;5073828;28;45756;-74
2023/03/18 08:36:21;;;;;;;;;3.00;3.00;;;;;13.40;71.78;100589.84;5075896;28;45359;-73
2023/03/18 08:38:46;;;;;;;;;2.75;2.00;;;;;13.48;71.25;100590.25;5075397;28;45445;-73
2023/03/18 08:41:11;;;;;;;;;2.00;2.00;;;;;13.56;71.11;100592.47;5075670;28;46030;-75
2023/03/18 08:43:37;;;;;;;;;2.50;2.50;;;;;13.61;71.03;100585.84;5075872;28;45244;-74
2023/03/18 08:46:03;;;;;;;;;4.00;4.00;;;;;13.70;71.16;100579.03;5075607;28;45506;-72
2023/03/18 08:48:31;;;;;;;;;3.00;3.00;;;;;13.75;70.61;100581.44;5075325;28;45325;-74
2023/03/18 08:50:56;;;;;;;;;4.00;2.25;;;;;13.73;70.49;100572.59;5075418;28;46021;-75
2023/03/18 08:53:21;;;;;;;;;5.00;3.00;;;;;13.69;70.13;100569.22;5075786;28;45312;-76
2023/03/18 08:55:47;;;;;;;;;3.00;3.00;;;;;13.79;69.82;100586.53;5075325;28;45559;-74
2023/03/18 08:58:12;;;;;;;;;2.50;2.50;;;;;13.78;69.86;100578.56;5049991;28;46156;-76
2023/03/18 09:00:40;;;;;;;;;5.00;4.00;;;;;13.79;69.14;100577.59;5075077;28;45973;-73
2023/03/18 09:03:06;;;;;;;;;4.00;4.00;;;;;13.78;69.17;100578.56;5074921;28;45508;-72
2023/03/18 09:05:32;;;;;;;;;5.00;5.00;;;;;13.79;69.49;100578.47;5060407;28;45467;-73
2023/03/18 09:07:59;;;;;;;;;5.00;3.25;;;;;13.86;69.18;100579.84;5055208;28;45245;-74
2023/03/18 09:10:25;;;;;;;;;3.50;3.50;;;;;13.82;69.19;100556.72;5054991;28;45473;-72
2023/03/18 09:12:50;;;;;;;;;5.00;3.25;;;;;13.95;68.73;100581.94;5055302;28;45236;-72
2023/03/18 09:15:19;;;;;;;;;3.50;3.00;;;;;13.97;68.95;100580.00;5054940;28;45560;-73
2023/03/18 09:17:44;;;;;;;;;5.75;5.75;;;;;13.97;68.88;100588.09;5054517;28;46159;-73
2023/03/18 09:20:12;;;;;;;;;5.25;5.25;;;;;14.03;68.28;100586.88;5054656;28;46222;-72
2023/03/18 09:22:40;;;;;;;;;8.25;6.25;;;;;14.05;67.75;100586.75;5055174;28;45308;-73
2023/03/18 09:25:06;;;;;;;;;8.00;6.75;;;;;14.06;68.13;100585.78;5055221;28;45341;-74
2023/03/18 09:27:32;;;;;;;;;5.00;5.00;;;;;14.09;67.96;100591.88;5054995;28;45399;-74
2023/03/18 09:29:58;;;;;;;;;4.25;4.25;;;;;14.06;67.80;100581.25;5054427;28;45415;-73
2023/03/18 09:32:24;;;;;;;;;4.00;4.00;;;;;14.13;67.93;100582.59;5053461;28;45332;-75
2023/03/18 09:34:50;;;;;;;;;5.75;4.25;;;;;14.16;68.10;100584.25;5054525;28;45463;-72
2023/03/18 09:37:17;;;;;;;;;3.00;3.00;;;;;14.21;68.03;100584.81;5036416;28;45501;-74
2023/03/18 09:39:44;;;;;;;;;3.75;3.75;;;;;14.26;68.11;100578.19;5036132;28;47678;-73
2023/03/18 09:42:43;;;;;;;;;3.75;3.75;;;;;14.36;67.88;100583.88;5036478;28;45340;-73
2023/03/18 09:45:34;;;;;;;;;3.75;3.75;;;;;14.41;66.96;100573.66;5054591;28;45560;-73
2023/03/18 09:48:22;;;;;;;;;3.25;3.00;;;;;14.51;67.00;100569.41;5053965;28;45497;-73
2023/03/18 09:51:03;;;;;;;;;3.50;3.50;;;;;14.60;66.29;100578.75;5054327;28;45443;-76
2023/03/18 09:53:45;;;;;;;;;3.25;2.50;;;;;14.72;66.08;100577.94;5054725;28;45289;-73
2023/03/18 09:56:16;;;;;;;;;2.50;2.50;;;;;14.81;65.54;100580.03;5037294;28;45347;-74
2023/03/18 09:58:58;;;;;;;;;3.00;3.00;;;;;14.87;65.61;100589.56;5043752;28;45446;-74
2023/03/18 10:01:26;;;;;;;;;2.00;2.00;;;;;14.88;64.65;100580.50;5036011;28;48584;-75
2023/03/18 10:04:15;;;;;;;;;4.00;2.25;;;;;14.89;63.91;100584.91;5067817;28;45434;-72
2023/03/18 10:06:43;;;;;;;;;2.25;2.25;;;;;14.85;63.54;100591.50;5040278;28;45458;-72
2023/03/18 10:09:23;;;;;;;;;2.50;2.50;;;;;14.92;63.55;100580.19;5060624;28;46025;-74
2023/03/18 10:12:00;;;;;;;;;2.50;2.00;;;;;15.08;63.74;100588.13;5067038;28;45308;-73
2023/03/18 10:14:25;;;;;;;;;3.00;3.00;;;;;15.17;63.16;100592.03;5067481;28;45355;-74
2023/03/18 10:16:57;;;;;;;;;2.00;2.00;;;;;15.31;62.95;100576.63;5061505;28;45363;-75
2023/03/18 10:19:23;;;;;;;;;2.00;2.00;;;;;15.44;62.08;100580.22;5036495;28;45290;-74
2023/03/18 10:22:15;;;;;;;;;1.50;1.00;;;;;15.57;60.99;100592.94;5054436;28;46577;-74
2023/03/18 10:25:16;;;;;;;;;1.50;1.00;;;;;15.65;61.09;100587.88;5036180;28;45324;-74
2023/03/18 10:28:04;;;;;;;;;3.75;2.00;;;;;15.68;60.13;100601.16;5064925;28;45355;-74
2023/03/18 10:31:09;;;;;;;;;1.50;1.50;;;;;15.62;59.97;100598.88;5074206;28;45303;-74
2023/03/18 10:33:53;;;;;;;;;3.00;3.00;;;;;15.58;59.97;100590.13;5071926;28;46261;-76
2023/03/18 10:36:29;;;;;;;;;2.75;2.75;;;;;15.52;59.69;100585.97;5072813;28;45296;-74
2023/03/18 10:38:58;;;;;;;;;2.25;1.75;;;;;15.54;59.57;100598.56;5054889;28;45190;-74
2023/03/18 10:41:35;;;;;;;;;1.00;1.00;;;;;15.58;58.81;100575.72;5072823;28;45343;-77
2023/03/18 10:44:17;;;;;;;;;1.00;1.00;;;;;15.70;58.64;100596.53;5074867;28;45527;-74
2023/03/18 10:46:45;;;;;;;;;1.75;1.75;;;;;15.83;58.63;100589.28;5058516;28;45352;-73
2023/03/18 10:49:26;;;;;;;;;0.75;0.75;;;;;15.89;58.38;100575.34;5076542;28;45392;-72
2023/03/18 10:52:09;;;;;;;;;1.00;1.00;;;;;16.05;58.31;100589.50;5076976;28;45291;-75
2023/03/18 10:54:42;;;;;;;;;2.25;2.00;;;;;16.16;58.47;100567.94;5072215;28;46261;-74
2023/03/18 10:57:13;;;;;;;;;1.00;1.00;;;;;16.39;57.40;100574.44;5056180;28;45399;-74
2023/03/18 10:59:39;;;;;;;;;2.00;2.00;;;;;16.44;56.55;100563.25;5056722;28;45401;-74
2023/03/18 11:02:13;;;;;;;;;3.00;1.25;;;;;16.63;56.59;100569.09;5055922;28;45568;-74
2023/03/18 11:04:48;;;;;;;;;1.75;1.75;;;;;16.67;54.97;100584.13;5056452;28;45733;-73
2023/03/18 11:07:20;;;;;;;;;1.25;0.25;;;;;16.75;54.82;100592.56;5056034;28;45568;-75
2023/03/18 11:09:45;;;;;;;;;1.75;1.00;;;;;16.66;54.85;100589.66;5056337;28;45174;-75
2023/03/18 11:12:17;;;;;;;;;1.25;1.25;;;;;16.66;54.09;100600.47;5055756;28;45507;-74
2023/03/18 11:14:48;;;;;;;;;3.00;1.00;;;;;16.64;54.59;100579.81;5055770;28;46648;-74
2023/03/18 11:17:21;;;;;;;;;0.25;0.25;;;;;16.81;54.39;100593.94;5055680;28;45431;-73
2023/03/18 11:19:49;;;;;;;;;2.00;2.00;;;;;16.84;54.97;100575.59;5055552;28;45222;-75
2023/03/18 11:22:19;;;;;;;;;2.25;1.25;;;;;16.99;54.17;100585.31;5055774;28;46296;-75
2023/03/18 11:24:45;;;;;;;;;3.00;2.00;;;;;17.08;54.48;100577.47;5056301;28;45249;-77
2023/03/18 11:27:14;;;;;;;;;1.00;1.00;;;;;17.02;54.09;100587.75;5037671;28;45362;-75
2023/03/18 11:29:49;;;;;;;;;1.00;1.00;;;;;16.91;54.72;100568.78;5037850;28;45506;-73
2023/03/18 11:32:35;;;;;;;;;3.00;1.25;;;;;16.93;53.85;100574.91;4998424;28;1128533;-74
2023/03/18 11:35:06;;;;;;;;;2.75;2.00;;;;;16.95;53.42;100577.50;5056452;28;45381;-75
2023/03/18 11:37:39;;;;;;;;;2.75;2.75;;;;;17.03;53.64;100577.81;5056647;28;45324;-76
2023/03/18 11:40:28;;;;;;;;;4.00;1.00;;;;;17.15;52.91;100574.19;5056605;28;45530;-74
2023/03/18 11:42:59;;;;;;;;;3.00;3.00;;;;;17.31;52.92;100574.75;5056373;28;45335;-79
2023/03/18 11:45:25;;;;;;;;;4.25;2.00;;;;;17.39;51.70;100575.00;5056862;28;46635;-76
2023/03/18 11:47:52;;;;;;;;;1.50;1.25;;;;;17.47;51.91;100573.56;5056290;28;45204;-77
2023/03/18 11:50:22;;;;;;;;;4.75;0.25;;;;;17.54;51.28;100581.09;5056511;28;45402;-79
2023/03/18 11:52:59;;;;;;;;;1.00;1.00;;;;;17.68;51.45;100580.94;5073682;28;45680;-74
2023/03/18 11:55:57;;;;;;;;;1.00;1.00;;;;;17.87;51.10;100584.88;5075736;28;45312;-75
2023/03/18 11:58:23;;;;;;;;;0.75;0.75;;;;;17.99;49.67;100575.78;5070117;28;45310;-76
2023/03/18 12:00:54;;;;;;;;;1.00;1.00;;;;;18.19;49.47;100591.38;5074712;28;45295;-73
2023/03/18 12:03:38;;;;;;;;;3.50;0.75;;;;;18.35;48.45;100594.56;5064366;28;45441;-72
2023/03/18 12:06:18;;;;;;;;;2.00;0.50;;;;;18.59;47.80;100571.88;5054719;28;45426;-73
2023/03/18 12:08:49;;;;;;;;;0.00;0.00;;;;;18.88;47.70;100570.34;5053089;28;45572;-72
2023/03/18 12:11:18;;;;;;;;;1.00;1.00;;;;;18.89;46.84;100583.78;5053761;28;45508;-71
2023/03/18 12:14:14;;;;;;;;;1.00;0.00;;;;;18.99;46.61;100578.44;5070739;28;45311;-72
2023/03/18 12:16:43;;;;;;;;;3.75;1.25;;;;;19.55;46.29;100573.69;5074893;28;45974;-73
2023/03/18 12:19:18;;;;;;;;;1.00;1.00;;;;;19.97;44.67;100576.41;5076359;28;45448;-74
2023/03/18 12:22:20;;;;;;;;;1.75;1.75;;;;;20.06;45.18;100572.88;5075648;28;45355;-69
2023/03/18 12:25:00;;;;;;;;;2.50;1.00;;;;;20.17;44.72;100545.53;5075508;28;45911;-73
2023/03/18 12:27:56;;;;;;;;;1.00;1.00;;;;;20.50;44.40;100557.19;5075562;28;46387;-73
2023/03/18 12:30:48;;;;;;;;;2.00;2.00;;;;;21.50;42.41;100550.59;5075444;28;45757;-75
2023/03/18 12:33:37;;;;;;;;;0.75;0.75;;;;;21.91;40.64;100549.34;5075241;28;45551;-74
2023/03/18 12:36:21;;;;;;;;;1.25;1.25;;;;;21.76;41.11;100545.38;5075427;28;45429;-73
2023/03/18 12:38:55;;;;;;;;;2.00;0.75;;;;;21.21;41.43;100557.91;5075789;28;46340;-73
2023/03/18 12:41:53;;;;;;;;;0.75;0.75;;;;;20.60;42.41;100550.75;5075147;28;45393;-74
2023/03/18 12:44:48;;;;;;;;;1.50;0.00;;;;;20.22;44.00;100550.59;5075579;28;45414;-75
2023/03/18 12:47:24;;;;;;;;;0.50;0.50;;;;;19.48;45.56;100558.03;5061382;28;45398;-70
2023/03/18 12:50:07;;;;;;;;;0.50;0.50;;;;;19.02;48.56;100577.34;5074822;28;46137;-74
2023/03/18 12:52:57;;;;;;;;;0.25;0.25;;;;;18.64;50.51;100569.63;5075283;28;45374;-74
2023/03/18 12:55:29;;;;;;;;;1.00;1.00;;;;;18.27;52.13;100572.63;5063793;28;45419;-75
2023/03/18 12:58:27;;;;;;;;;2.25;1.00;;;;;18.06;52.24;100547.19;5054266;28;45453;-74
2023/03/18 13:01:09;;;;;;;;;2.00;1.00;;;;;18.00;53.25;100572.09;5050966;28;45315;-74
2023/03/18 13:03:40;;;;;;;;;1.25;1.25;;;;;17.82;52.32;100551.84;5074384;28;45442;-75
2023/03/18 13:06:18;;;;;;;;;0.75;0.75;;;;;17.52;52.84;100571.38;5055007;28;45335;-73
2023/03/18 13:09:00;;;;;;;;;0.00;0.00;;;;;17.46;53.21;100585.38;5053565;28;45531;-74
2023/03/18 13:11:38;;;;;;;;;0.50;0.00;;;;;17.31;54.36;100584.72;5054374;28;45999;-74
2023/03/18 13:14:45;;;;;;;;;0.00;0.00;;;;;17.29;55.11;100590.25;5054359;28;45479;-74
2023/03/18 13:17:20;;;;;;;;;0.50;0.25;;;;;17.22;54.89;100572.72;5019481;28;45579;-73
2023/03/18 13:19:46;;;;;;;;;0.00;0.00;;;;;17.62;55.34;100564.25;5053993;28;45539;-74
2023/03/18 13:22:30;;;;;;;;;1.50;0.00;;;;;17.86;53.49;100567.78;5053995;28;45932;-76
2023/03/18 13:25:05;;;;;;;;;0.00;0.00;;;;;18.06;52.56;100568.88;5054302;28;45430;-73
2023/03/18 13:27:57;;;;;;;;;1.00;1.00;;;;;18.02;52.70;100562.88;5036711;28;45326;-73
2023/03/18 13:30:37;;;;;;;;;3.00;0.00;;;;;17.95;52.90;100553.47;5053737;28;45514;-75
2023/03/18 13:33:33;;;;;;;;;1.00;1.00;;;;;17.87;53.93;100555.91;5053697;28;45500;-74
2023/03/18 13:36:14;;;;;;;;;0.25;0.25;;;;;17.86;54.20;100572.34;5054010;28;45487;-76
2023/03/18 13:39:10;;;;;;;;;1.00;1.00;;;;;17.55;54.73;100534.03;5054124;28;45441;-73
2023/03/18 13:42:11;;;;;;;;;1.25;1.00;;;;;17.73;55.71;100565.16;5053321;28;45442;-74
2023/03/18 13:44:55;;;;;;;;;2.25;1.00;;;;;17.81;55.95;100555.56;5053746;28;46050;-74
2023/03/18 13:47:22;;;;;;;;;0.00;0.00;;;;;17.99;54.81;100556.81;5053653;28;45393;-74
2023/03/18 13:49:56;;;;;;;;;1.00;1.00;;;;;18.12;54.04;100549.41;5053979;28;45464;-74
2023/03/18 13:52:29;;;;;;;;;0.00;0.00;;;;;18.04;53.53;100557.28;5053812;28;45504;-73
2023/03/18 13:55:01;;;;;;;;;2.00;0.00;;;;;17.95;53.56;100530.94;5054494;28;46261;-76
2023/03/18 13:57:26;;;;;;;;;2.25;0.00;;;;;18.11;51.54;100547.69;5054171;28;45476;-74
2023/03/18 14:00:22;;;;;;;;;0.00;0.00;;;;;18.52;50.33;100545.19;5056836;28;45485;-75
2023/03/18 14:03:00;;;;;;;;;0.00;0.00;;;;;19.38;48.24;100530.72;5070564;28;45398;-77
2023/03/18 14:05:32;;;;;;;;;0.50;0.25;;;;;20.60;46.25;100536.25;5060345;28;46089;-73
2023/03/18 14:07:58;;;;;;;;;1.75;0.00;;;;;21.66;42.97;100530.88;5063903;28;45354;-75
2023/03/18 14:10:23;;;;;;;;;0.75;0.00;;;;;22.62;40.81;100525.09;5058925;28;45414;-76
2023/03/18 14:12:49;;;;;;;;;0.00;0.00;;;;;23.43;39.22;100511.38;5054161;28;45509;-72
2023/03/18 14:15:15;;;;;;;;;1.50;0.00;;;;;23.85;37.34;100525.25;5053975;28;47504;-74
2023/03/18 14:17:46;;;;;;;;;0.00;0.00;;;;;23.78;36.27;100514.09;5052930;28;45370;-74
2023/03/18 14:20:16;;;;;;;;;0.00;0.00;;;;;23.31;36.10;100519.81;5061693;28;45456;-77
2023/03/18 14:22:42;;;;;;;;;0.00;0.00;;;;;23.56;38.13;100517.34;5075578;27;47113;-75
2023/03/18 14:25:20;;;;;;;;;0.00;0.00;;;;;23.92;36.51;100520.84;5046743;28;47131;-74
2023/03/18 14:27:47;;;;;;;;;0.00;0.00;;;;;24.29;35.88;100505.00;5056679;28;45562;-75
2023/03/18 14:30:31;;;;;;;;;0.00;0.00;;;;;24.21;34.27;100510.44;5060227;28;45539;-76
2023/03/18 14:33:32;;;;;;;;;0.00;0.00;;;;;23.41;35.61;100500.59;5056250;28;45427;-74
2023/03/18 14:36:04;;;;;;;;;1.75;0.75;;;;;22.32;37.81;100514.44;5067367;28;46092;-75
2023/03/18 14:38:41;;;;;;;;;0.50;0.50;;;;;21.95;39.15;100515.28;5070632;28;45436;-74
2023/03/18 14:41:19;;;;;;;;;0.25;0.25;;;;;21.43;40.00;100498.50;5057526;28;45485;-78
2023/03/18 14:43:53;;;;;;;;;2.00;0.75;;;;;21.28;40.40;100509.97;5057424;28;45363;-78
2023/03/18 14:46:26;;;;;;;;;0.75;0.75;;;;;20.91;41.21;100520.72;5057172;28;45405;-77
2023/03/18 14:48:54;;;;;;;;;0.00;0.00;;;;;20.43;41.76;100518.72;5066930;28;45462;-77
2023/03/18 14:51:22;;;;;;;;;0.00;0.00;;;;;20.06;42.48;100509.41;5076716;28;45408;-75
2023/03/18 14:53:59;;;;;;;;;1.50;0.00;;;;;19.76;43.65;100516.53;5075811;28;45568;-74
2023/03/18 14:56:29;;;;;;;;;0.00;0.00;;;;;19.88;44.43;100495.56;5062188;28;45410;-73
2023/03/18 14:58:55;;;;;;;;;0.00;0.00;;;;;19.80;44.08;100498.97;5056590;28;45540;-73
2023/03/18 15:01:26;;;;;;;;;2.25;1.00;;;;;19.65;44.75;100506.59;5063599;28;45536;-76
2023/03/18 15:03:54;;;;;;;;;0.50;0.50;;;;;19.72;44.55;100503.38;5071300;28;45521;-74
2023/03/18 15:06:24;;;;;;;;;0.50;0.50;;;;;19.98;43.91;100507.38;5077055;28;46273;-75
2023/03/18 15:09:00;;;;;;;;;0.00;0.00;;;;;20.60;43.35;100499.00;5075890;28;45500;-75
2023/03/18 15:11:25;;;;;;;;;0.00;0.00;;;;;20.98;41.46;100478.25;5076826;28;45438;-77
2023/03/18 15:13:56;;;;;;;;;0.25;0.25;;;;;21.63;40.65;100493.84;5075395;28;45332;-78
2023/03/18 15:16:23;;;;;;;;;0.75;0.75;;;;;21.66;40.09;100495.41;5075189;28;46291;-77
2023/03/18 15:18:54;;;;;;;;;0.00;0.00;;;;;21.44;40.57;100482.94;5036214;28;46196;-79
2023/03/18 15:21:27;;;;;;;;;1.50;0.00;;;;;21.57;40.77;100483.53;5057820;28;45336;-79
2023/03/18 15:23:57;;;;;;;;;0.00;0.00;;;;;21.28;41.53;100466.34;5067224;28;45431;-78
2023/03/18 15:26:37;;;;;;;;;1.00;1.00;;;;;21.38;41.40;100459.00;5068573;28;46071;-78
2023/03/18 15:29:27;;;;;;;;;2.00;1.00;;;;;22.13;41.27;100483.50;5057629;28;45651;-79
2023/03/18 15:31:53;;;;;;;;;0.75;0.75;;;;;22.74;39.68;100477.41;5074990;28;45434;-78
2023/03/18 15:34:21;;;;;;;;;0.50;0.50;;;;;23.08;38.47;100457.56;5045723;28;47248;-76
2023/03/18 15:36:56;;;;;;;;;0.75;0.75;;;;;23.66;37.32;100474.28;5054089;28;46254;-77
2023/03/18 15:39:32;;;;;;;;;1.50;0.00;;;;;23.34;37.43;100469.41;5062626;28;45422;-76
2023/03/18 15:42:00;;;;;;;;;0.50;0.50;;;;;22.90;38.01;100446.63;5059511;28;45342;-78
2023/03/18 15:44:36;;;;;;;;;0.50;0.50;;;;;22.21;39.32;100493.66;5056274;28;45482;-81
2023/03/18 15:47:24;;;;;;;;;1.75;1.75;;;;;21.43;40.72;100473.09;5055105;28;45747;-76
2023/03/18 15:49:49;;;;;;;;;2.25;0.50;;;;;21.03;41.92;100486.84;5054379;28;45285;-74
2023/03/18 15:52:15;;;;;;;;;0.25;0.25;;;;;20.54;42.85;100487.81;5058867;28;45520;-72
2023/03/18 15:54:41;;;;;;;;;0.50;0.50;;;;;20.23;43.42;100476.97;5054001;28;46673;-73
2023/03/18 15:57:19;;;;;;;;;0.00;0.00;;;;;20.27;43.71;100492.00;5055489;28;46134;-74
2023/03/18 15:59:45;;;;;;;;;0.00;0.00;;;;;20.50;44.48;100470.88;5056628;28;45695;-72
2023/03/18 16:02:14;;;;;;;;;1.00;1.00;;;;;20.70;45.40;100488.09;5058954;28;45510;-73
2023/03/18 16:04:43;;;;;;;;;2.50;1.00;;;;;20.77;45.87;100495.56;5053907;28;46178;-73
2023/03/18 16:07:27;;;;;;;;;0.50;0.50;;;;;20.34;44.81;100471.41;5059497;28;45568;-72
2023/03/18 16:09:54;;;;;;;;;2.50;1.00;;;;;20.25;45.45;100498.56;5064175;28;45307;-71
2023/03/18 16:12:23;;;;;;;;;0.50;0.50;;;;;20.05;45.66;100503.09;5073741;28;45443;-71
2023/03/18 16:14:50;;;;;;;;;1.75;1.75;;;;;19.91;46.41;100476.22;5067684;28;45321;-72
2023/03/18 16:17:19;;;;;;;;;1.00;1.00;;;;;19.83;46.76;100481.50;5063829;28;46436;-71
2023/03/18 16:19:46;;;;;;;;;2.25;1.75;;;;;19.96;47.52;100485.72;5063357;28;45480;-74
2023/03/18 16:22:13;;;;;;;;;1.00;1.00;;;;;20.07;46.60;100487.50;5074050;28;45311;-76
2023/03/18 16:24:40;;;;;;;;;0.50;0.50;;;;;20.01;46.28;100485.31;5058515;28;45860;-72
2023/03/18 16:27:29;;;;;;;;;0.50;0.50;;;;;19.76;47.02;100477.59;5075959;28;47203;-77
2023/03/18 16:29:55;;;;;;;;;0.50;0.50;;;;;19.37;47.57;100492.81;5074151;28;45425;-75
2023/03/18 16:32:20;;;;;;;;;1.00;1.00;;;;;19.07;48.10;100485.41;5057303;28;45424;-78
2023/03/18 16:34:45;;;;;;;;;1.75;1.75;;;;;18.98;48.59;100526.94;5075768;28;45456;-75
2023/03/18 16:37:20;;;;;;;;;1.50;0.50;;;;;18.81;48.11;100498.47;5075740;28;45308;-74
2023/03/18 16:39:45;;;;;;;;;1.00;1.00;;;;;18.67;47.81;100498.78;5075345;28;45401;-74
2023/03/18 16:42:11;;;;;;;;;1.00;1.00;;;;;18.90;48.00;100505.84;5075707;28;45298;-75
2023/03/18 16:44:36;;;;;;;;;0.25;0.25;;;;;18.85;48.34;100517.13;5075725;28;45419;-74
2023/03/18 16:47:02;;;;;;;;;2.00;0.25;;;;;18.92;48.50;100498.44;5075921;28;45512;-76